This is the latest recevied weather packets stored in our database for station/object K4ZZR. If no packets are shown the sender has not sent any weather packets the latest 10 day(s).
| Time | Temp. | Humidity | Pressure | Rain* | Wind** | Luminosity | Snow |
|---|---|---|---|---|---|---|---|
| 1777585167 | 31.67° C | 51% | 1009 hPa | 0 mm | - | 356 W/m² | - |
| 1777584863 | 31.11° C | 50% | 1009.3 hPa | 0 mm | - | 413 W/m² | - |
| 1777584561 | 31.11° C | 52% | 1009 hPa | 0 mm | - | 392 W/m² | - |
| 1777584257 | 31.11° C | 51% | 1009.1 hPa | 0 mm | - | 283 W/m² | - |
| 1777583951 | 31.67° C | 51% | 1009.2 hPa | 0 mm | - | 427 W/m² | - |
| 1777583647 | 31.67° C | 50% | 1009.2 hPa | 0 mm | - | 469 W/m² | - |
| 1777583346 | 31.11° C | 51% | 1009.4 hPa | 0 mm | - | 392 W/m² | - |
| 1777583041 | 31.11° C | 51% | 1009.2 hPa | 0 mm | - | 517 W/m² | - |
| 1777582738 | 31.67° C | 50% | 1009.2 hPa | 0 mm | - | 541 W/m² | - |
| 1777582433 | 30.56° C | 52% | 1009.2 hPa | 0 mm | - | 201 W/m² | - |
| 1777582133 | 31.11° C | 52% | 1009.3 hPa | 0 mm | - | 144 W/m² | - |
| 1777581826 | 31.11° C | 51% | 1009.2 hPa | 0 mm | - | 581 W/m² | - |
| 1777581525 | 30.56° C | 52% | 1009.5 hPa | 0 mm | - | 155 W/m² | - |
| 1777581221 | 31.11° C | 52% | 1009.4 hPa | 0 mm | - | 184 W/m² | - |
| 1777580921 | 32.22° C | 51% | 1009.5 hPa | 0 mm | - | 673 W/m² | - |
| 1777580615 | 30.56° C | 53% | 1009.7 hPa | 0 mm | - | 469 W/m² | - |
| 1777580312 | 30.56° C | 53% | 1009.7 hPa | 0 mm | - | 212 W/m² | - |
| 1777580008 | 31.11° C | 53% | 1009.7 hPa | 0 mm | - | 362 W/m² | - |
| 1777579704 | 30.56° C | 54% | 1009.9 hPa | 0 mm | - | 333 W/m² | - |
| 1777579403 | 31.11° C | 53% | 1009.9 hPa | 0 mm | - | 173 W/m² | - |
| 1777579098 | 31.67° C | 51% | 1009.8 hPa | 0 mm | - | 357 W/m² | - |
| 1777578792 | 31.67° C | 51% | 1010 hPa | 0 mm | - | 677 W/m² | - |
| 1777578488 | 31.11° C | 52% | 1009.9 hPa | 0 mm | - | 282 W/m² | - |
| 1777578183 | 31.11° C | 52% | 1010.1 hPa | 0 mm | - | 285 W/m² | - |
| 1777577879 | 31.67° C | 51% | 1010.1 hPa | 0 mm | - | 362 W/m² | - |
* Rain latest hour (hover to see other rain measurements)
** Current wind speed in m/s (hover to see current wind gust speed)